createdAt,value
2018-05-21T00:00:03.649Z,5.80
2018-05-21T00:02:31.193Z,6.50
2018-05-21T00:04:59.479Z,6.23
2018-05-21T00:07:27.015Z,6.17
2018-05-21T00:09:55.325Z,6.53
2018-05-21T00:12:22.887Z,6.03
2018-05-21T00:14:50.612Z,6.43
2018-05-21T00:17:18.147Z,6.13
2018-05-21T00:19:45.672Z,6.10
2018-05-21T00:22:13.237Z,6.30
2018-05-21T00:24:40.738Z,6.47
2018-05-21T00:27:08.270Z,6.37
2018-05-21T00:29:35.770Z,6.20
2018-05-21T00:32:04.089Z,7.20
2018-05-21T00:34:31.594Z,7.43
2018-05-21T00:36:59.162Z,6.60
2018-05-21T00:39:26.694Z,7.23
2018-05-21T00:41:54.215Z,7.27
2018-05-21T00:44:21.775Z,6.73
2018-05-21T00:46:49.626Z,6.90
2018-05-21T00:49:17.160Z,7.23
2018-05-21T00:51:44.712Z,7.23
2018-05-21T00:54:12.222Z,7.20
2018-05-21T00:56:39.709Z,7.30
2018-05-21T00:59:07.236Z,7.43
2018-05-21T01:01:34.732Z,6.70
2018-05-21T01:04:02.257Z,7.47
2018-05-21T01:06:29.786Z,6.90
2018-05-21T01:08:57.368Z,7.60
2018-05-21T01:11:24.935Z,7.67
2018-05-21T01:13:52.476Z,7.83
2018-05-21T01:16:20.005Z,7.07
2018-05-21T01:18:48.292Z,7.77
2018-05-21T01:21:16.592Z,7.97
2018-05-21T01:23:44.159Z,7.47
2018-05-21T01:26:11.721Z,8.33
2018-05-21T01:28:39.225Z,8.40
2018-05-21T01:31:06.737Z,8.60
2018-05-21T01:33:34.250Z,8.30
2018-05-21T01:36:02.549Z,9.40
2018-05-21T01:38:30.074Z,8.63
2018-05-21T01:40:57.571Z,8.60
2018-05-21T01:43:25.118Z,9.13
2018-05-21T01:45:52.681Z,8.83
2018-05-21T01:48:20.214Z,9.03
2018-05-21T01:50:47.723Z,9.47
2018-05-21T01:53:15.238Z,9.07
2018-05-21T01:55:43.504Z,9.23
2018-05-21T01:58:11.008Z,8.83
2018-05-21T02:00:40.361Z,10.33
2018-05-21T02:03:09.526Z,9.00
2018-05-21T02:05:38.616Z,9.30
2018-05-21T02:08:06.162Z,9.30
2018-05-21T02:10:33.696Z,9.30
2018-05-21T02:13:01.986Z,9.33
2018-05-21T02:15:29.524Z,9.60
2018-05-21T02:17:57.794Z,9.40
2018-05-21T02:20:26.086Z,9.73
2018-05-21T02:22:53.622Z,10.47
2018-05-21T02:25:21.150Z,10.17
2018-05-21T02:27:48.702Z,9.90
2018-05-21T02:30:16.233Z,10.00
2018-05-21T02:32:43.735Z,10.30
2018-05-21T02:35:11.263Z,9.93
2018-05-21T02:37:38.779Z,9.50
2018-05-21T02:40:07.069Z,10.60
2018-05-21T02:42:34.598Z,10.77
2018-05-21T02:45:03.456Z,10.90
2018-05-21T02:47:30.981Z,9.27
2018-05-21T02:49:58.490Z,10.13
2018-05-21T02:52:26.077Z,10.40
2018-05-21T02:54:54.348Z,10.33
2018-05-21T02:57:22.643Z,10.87
2018-05-21T02:59:50.192Z,10.43
2018-05-21T03:02:19.786Z,10.53
2018-05-21T03:04:48.082Z,10.63
2018-05-21T03:07:15.624Z,10.60
2018-05-21T03:09:44.278Z,11.23
2018-05-21T03:12:11.792Z,10.40
2018-05-21T03:14:39.330Z,11.10
2018-05-21T03:17:06.830Z,10.90
2018-05-21T03:19:34.364Z,10.67
2018-05-21T03:22:01.886Z,10.43
2018-05-21T03:24:29.386Z,10.33
2018-05-21T03:26:56.920Z,10.47
2018-05-21T03:29:25.217Z,11.43
2018-05-21T03:31:52.762Z,10.90
2018-05-21T03:34:21.037Z,11.10
2018-05-21T03:36:49.335Z,11.00
2018-05-21T03:39:16.900Z,11.20
2018-05-21T03:41:44.535Z,10.67
2018-05-21T03:44:12.803Z,11.03
2018-05-21T03:46:40.400Z,10.77
2018-05-21T03:49:07.918Z,10.90
2018-05-21T03:51:35.504Z,10.67
2018-05-21T03:54:03.050Z,10.70
2018-05-21T03:56:31.340Z,11.20
2018-05-21T03:59:12.206Z,11.27
2018-05-21T04:01:51.856Z,11.50
2018-05-21T04:04:20.297Z,10.97
2018-05-21T04:06:47.788Z,10.77
2018-05-21T04:09:15.353Z,11.23
2018-05-21T04:11:42.889Z,11.07
2018-05-21T04:14:11.151Z,11.37
2018-05-21T04:16:38.673Z,11.10
2018-05-21T04:19:06.361Z,10.90
2018-05-21T04:21:33.874Z,10.53
2018-05-21T04:24:01.404Z,10.17
2018-05-21T04:26:29.767Z,10.27
2018-05-21T04:28:57.275Z,10.27
2018-05-21T04:31:24.786Z,10.43
2018-05-21T04:33:52.286Z,10.53
2018-05-21T04:36:20.651Z,9.63
2018-05-21T04:38:48.734Z,10.03
2018-05-21T04:41:16.280Z,10.23
2018-05-21T04:43:43.973Z,9.70
2018-05-21T04:46:13.145Z,9.53
2018-05-21T04:48:40.668Z,10.37
2018-05-21T04:51:08.191Z,9.77
2018-05-21T04:53:35.707Z,9.00
2018-05-21T04:56:03.255Z,9.80
2018-05-21T04:58:31.541Z,10.27
2018-05-21T05:00:59.922Z,10.60
2018-05-21T05:03:27.428Z,10.40
2018-05-21T05:05:54.952Z,9.83
2018-05-21T05:08:22.479Z,10.23
2018-05-21T05:10:50.810Z,10.40
2018-05-21T05:13:18.335Z,9.43
2018-05-21T05:15:46.224Z,10.17
2018-05-21T05:18:13.740Z,11.00
2018-05-21T05:20:42.035Z,10.70
2018-05-21T05:23:09.669Z,9.87
2018-05-21T05:25:37.224Z,9.93
2018-05-21T05:28:04.749Z,9.93
2018-05-21T05:30:32.262Z,10.43
2018-05-21T05:33:00.551Z,9.77
2018-05-21T05:35:28.075Z,8.83
2018-05-21T05:37:55.586Z,8.23
2018-05-21T05:40:23.109Z,9.20
2018-05-21T05:42:51.420Z,9.13
2018-05-21T05:45:19.001Z,9.40
2018-05-21T05:47:46.578Z,9.07
2018-05-21T05:50:14.112Z,8.70
2018-05-21T05:52:41.615Z,8.87
2018-05-21T05:55:09.897Z,9.57
2018-05-21T05:57:38.199Z,9.13
2018-05-21T06:00:06.281Z,8.60
2018-05-21T06:02:33.963Z,8.57
2018-05-21T06:05:01.487Z,8.80
2018-05-21T06:07:29.007Z,9.03
2018-05-21T06:09:56.550Z,8.57
2018-05-21T06:12:24.042Z,8.50
2018-05-21T06:14:52.369Z,7.97
2018-05-21T06:17:19.872Z,7.90
2018-05-21T06:19:48.169Z,7.57
2018-05-21T06:22:15.705Z,8.13
2018-05-21T06:24:44.009Z,7.67
2018-05-21T06:27:11.509Z,7.83
2018-05-21T06:29:39.023Z,7.73
2018-05-21T06:32:06.529Z,7.20
2018-05-21T06:34:34.167Z,7.57
2018-05-21T06:37:01.675Z,8.30
2018-05-21T06:39:29.942Z,7.93
2018-05-21T06:41:57.464Z,7.90
2018-05-21T06:44:25.015Z,8.30
2018-05-21T06:46:52.553Z,7.30
2018-05-21T06:49:20.077Z,7.67
2018-05-21T06:51:48.108Z,8.77
2018-05-21T06:54:15.610Z,7.93
2018-05-21T06:56:43.894Z,7.67
2018-05-21T06:59:12.235Z,7.80
2018-05-21T07:01:39.770Z,7.27
2018-05-21T07:04:07.326Z,7.53
2018-05-21T07:06:34.897Z,7.13
2018-05-21T07:09:03.624Z,7.70
2018-05-21T07:11:31.168Z,7.93
2018-05-21T07:13:58.701Z,8.53
2018-05-21T07:16:26.232Z,8.33
2018-05-21T07:18:53.761Z,7.70
2018-05-21T07:21:22.033Z,7.57
2018-05-21T07:23:49.563Z,7.47
2018-05-21T07:26:17.094Z,7.23
2018-05-21T07:28:45.117Z,7.30
2018-05-21T07:31:13.520Z,8.00
2018-05-21T07:33:41.030Z,7.40
2018-05-21T07:36:08.539Z,8.00
2018-05-21T07:38:36.307Z,7.50
2018-05-21T07:41:03.825Z,7.33
2018-05-21T07:43:31.321Z,7.43
2018-05-21T07:45:58.831Z,7.37
2018-05-21T07:48:26.336Z,7.40
2018-05-21T07:50:53.849Z,7.50
2018-05-21T07:53:21.348Z,7.20
2018-05-21T07:55:48.900Z,7.97
2018-05-21T07:58:17.248Z,7.00
2018-05-21T08:00:44.696Z,7.27
2018-05-21T08:03:13.593Z,7.53
2018-05-21T08:05:41.947Z,8.27
2018-05-21T08:08:09.458Z,7.23
2018-05-21T08:10:37.744Z,7.70
2018-05-21T08:13:06.023Z,7.10
2018-05-21T08:15:33.558Z,7.40
2018-05-21T08:18:01.100Z,6.40
2018-05-21T08:20:28.635Z,7.30
2018-05-21T08:22:56.168Z,6.73
2018-05-21T08:25:23.721Z,7.63
2018-05-21T08:27:51.214Z,6.80
2018-05-21T08:30:18.760Z,6.27
2018-05-21T08:32:46.304Z,7.37
2018-05-21T08:35:13.832Z,7.27
2018-05-21T08:37:42.115Z,6.77
2018-05-21T08:40:10.378Z,7.10
2018-05-21T08:42:38.769Z,6.90
2018-05-21T08:45:06.200Z,6.40
2018-05-21T08:47:33.734Z,6.77
2018-05-21T08:50:01.260Z,7.17
2018-05-21T08:52:28.858Z,6.73
2018-05-21T08:54:56.335Z,5.90
2018-05-21T08:57:23.856Z,5.77
2018-05-21T08:59:51.359Z,5.90
2018-05-21T09:02:18.881Z,6.70
2018-05-21T09:04:46.383Z,7.60
2018-05-21T09:07:13.896Z,6.37
2018-05-21T09:09:41.414Z,7.83
2018-05-21T09:12:08.897Z,6.20
2018-05-21T09:14:36.432Z,6.60
2018-05-21T09:17:03.965Z,6.50
2018-05-21T09:19:32.288Z,6.70
2018-05-21T09:21:59.818Z,6.57
2018-05-21T09:24:28.095Z,6.80
2018-05-21T09:26:56.377Z,6.13
2018-05-21T09:29:23.909Z,5.90
2018-05-21T09:31:51.413Z,6.07
2018-05-21T09:34:18.938Z,6.27
2018-05-21T09:36:47.216Z,5.87
2018-05-21T09:39:15.472Z,5.77
2018-05-21T09:41:43.006Z,6.60
2018-05-21T09:44:10.512Z,6.10
2018-05-21T09:46:38.837Z,5.70
2018-05-21T09:49:07.110Z,6.33
2018-05-21T09:51:34.634Z,6.23
2018-05-21T09:54:02.148Z,5.57
2018-05-21T09:56:29.673Z,5.73
2018-05-21T09:58:57.197Z,6.03
2018-05-21T10:01:25.527Z,5.87
2018-05-21T10:03:53.066Z,5.53
2018-05-21T10:06:20.578Z,5.70
2018-05-21T10:08:48.106Z,5.60
2018-05-21T10:11:15.647Z,5.07
2018-05-21T10:13:43.197Z,5.40
2018-05-21T10:16:10.705Z,5.47
2018-05-21T10:18:38.220Z,5.20
2018-05-21T10:21:05.765Z,6.03
2018-05-21T10:23:33.288Z,5.60
2018-05-21T10:26:01.634Z,5.73
2018-05-21T10:28:29.081Z,6.03
2018-05-21T10:30:56.610Z,5.80
2018-05-21T10:33:24.143Z,5.23
2018-05-21T10:35:52.428Z,5.23
2018-05-21T10:38:20.691Z,5.20
2018-05-21T10:40:49.003Z,6.00
2018-05-21T10:43:16.542Z,5.20
2018-05-21T10:45:44.077Z,5.10
2018-05-21T10:48:11.583Z,5.10
2018-05-21T10:50:39.111Z,5.40
2018-05-21T10:53:06.631Z,5.23
2018-05-21T10:55:34.170Z,4.97
2018-05-21T10:58:01.747Z,4.90
2018-05-21T11:00:30.031Z,5.17
2018-05-21T11:02:57.564Z,4.90
2018-05-21T11:05:25.056Z,5.13
2018-05-21T11:07:52.623Z,4.63
2018-05-21T11:10:20.909Z,4.93
2018-05-21T11:12:49.212Z,5.00
2018-05-21T11:15:16.735Z,5.10
2018-05-21T11:17:44.266Z,4.57
2018-05-21T11:20:11.804Z,5.03
2018-05-21T11:22:39.344Z,5.13
2018-05-21T11:25:06.901Z,4.97
2018-05-21T11:27:34.498Z,4.90
2018-05-21T11:30:02.037Z,5.07
2018-05-21T11:32:29.538Z,4.70
2018-05-21T11:34:57.227Z,4.43
2018-05-21T11:37:24.761Z,4.93
2018-05-21T11:39:52.305Z,4.60
2018-05-21T11:42:20.607Z,4.33
2018-05-21T11:44:48.895Z,4.33
2018-05-21T11:47:17.196Z,4.90
2018-05-21T11:49:44.762Z,5.00
2018-05-21T11:52:12.267Z,5.07
2018-05-21T11:54:39.772Z,4.60
2018-05-21T11:57:07.303Z,4.60
2018-05-21T11:59:35.573Z,4.97
2018-05-21T12:02:03.973Z,4.53
2018-05-21T12:04:31.417Z,4.67
2018-05-21T12:06:58.962Z,4.87
2018-05-21T12:09:27.535Z,4.47
2018-05-21T12:11:55.079Z,4.77
2018-05-21T12:14:22.588Z,4.53
2018-05-21T12:16:50.106Z,4.60
2018-05-21T12:19:17.625Z,4.87
2018-05-21T12:21:45.284Z,4.67
2018-05-21T12:24:14.107Z,4.30
2018-05-21T12:26:41.687Z,4.00
2018-05-21T12:29:09.239Z,4.57
2018-05-21T12:31:37.544Z,4.27
2018-05-21T12:34:05.086Z,4.27
2018-05-21T12:36:33.367Z,4.57
2018-05-21T12:39:01.668Z,4.10
2018-05-21T12:41:29.179Z,4.07
2018-05-21T12:43:56.703Z,4.37
2018-05-21T12:46:24.220Z,4.37
2018-05-21T12:48:52.500Z,4.23
2018-05-21T12:51:20.759Z,4.50
2018-05-21T12:53:48.269Z,3.90
2018-05-21T12:56:15.796Z,4.13
2018-05-21T12:58:43.367Z,3.77
2018-05-21T13:01:10.878Z,3.87
2018-05-21T13:03:38.405Z,3.70
2018-05-21T13:06:05.940Z,4.50
2018-05-21T13:08:33.465Z,4.20
2018-05-21T13:11:01.756Z,4.13
2018-05-21T13:13:30.066Z,4.50
2018-05-21T13:15:57.567Z,4.17
2018-05-21T13:18:25.085Z,4.17
2018-05-21T13:20:52.640Z,4.17
2018-05-21T13:23:20.138Z,4.43
2018-05-21T13:25:47.667Z,4.73
2018-05-21T13:28:15.195Z,4.57
2018-05-21T13:30:42.722Z,4.37
2018-05-21T13:33:10.246Z,4.60
2018-05-21T13:35:38.515Z,4.33
2018-05-21T13:38:06.017Z,4.13
2018-05-21T13:40:34.281Z,3.87
2018-05-21T13:43:01.831Z,3.80
2018-05-21T13:45:29.328Z,4.30
2018-05-21T13:47:56.837Z,4.03
2018-05-21T13:50:24.403Z,3.80
2018-05-21T13:52:51.925Z,4.37
2018-05-21T13:55:19.432Z,4.07
2018-05-21T13:57:46.962Z,4.10
2018-05-21T14:00:14.496Z,4.10
2018-05-21T14:02:42.020Z,4.57
2018-05-21T14:05:09.554Z,5.80
2018-05-21T14:07:37.095Z,4.77
2018-05-21T14:10:04.626Z,4.60
2018-05-21T14:12:32.151Z,3.97
2018-05-21T14:15:00.450Z,4.23
2018-05-21T14:17:27.945Z,5.00
2018-05-21T14:19:55.491Z,4.47
2018-05-21T14:22:23.004Z,4.30
2018-05-21T14:24:50.528Z,4.10
2018-05-21T14:27:18.041Z,4.60
2018-05-21T14:29:45.616Z,4.30
2018-05-21T14:32:13.075Z,4.87
2018-05-21T14:34:40.678Z,4.23
2018-05-21T14:37:08.203Z,3.90
2018-05-21T14:39:35.701Z,4.30
2018-05-21T14:42:03.232Z,3.87
2018-05-21T14:44:30.840Z,4.33
2018-05-21T14:46:59.199Z,4.13
2018-05-21T14:49:26.805Z,4.53
2018-05-21T14:51:55.299Z,4.23
2018-05-21T14:54:22.854Z,4.50
2018-05-21T14:56:50.365Z,4.70
2018-05-21T14:59:18.664Z,3.97
2018-05-21T15:01:46.298Z,4.00
2018-05-21T15:04:14.594Z,3.80
2018-05-21T15:06:42.896Z,4.53
2018-05-21T15:09:10.404Z,4.30
2018-05-21T15:11:37.939Z,3.83
2018-05-21T15:14:05.468Z,3.93
2018-05-21T15:16:34.063Z,4.27
2018-05-21T15:19:01.577Z,4.20
2018-05-21T15:21:29.892Z,3.80
2018-05-21T15:23:57.424Z,4.33
2018-05-21T15:26:24.986Z,3.73
2018-05-21T15:28:52.528Z,4.10
2018-05-21T15:31:20.021Z,4.33
2018-05-21T15:33:47.561Z,4.33
2018-05-21T15:36:15.139Z,4.43
2018-05-21T15:38:42.646Z,4.17
2018-05-21T15:41:10.151Z,4.53
2018-05-21T15:43:37.674Z,4.00
2018-05-21T15:46:05.214Z,3.80
2018-05-21T15:48:32.769Z,4.20
2018-05-21T15:51:00.246Z,3.43
2018-05-21T15:53:27.777Z,4.03
2018-05-21T15:55:55.274Z,4.20
2018-05-21T15:58:23.589Z,4.03
2018-05-21T16:00:51.102Z,4.57
2018-05-21T16:03:19.382Z,4.20
2018-05-21T16:05:47.648Z,4.17
2018-05-21T16:08:15.168Z,4.67
2018-05-21T16:10:42.694Z,4.37
2018-05-21T16:13:10.205Z,4.43
2018-05-21T16:15:37.773Z,4.60
2018-05-21T16:18:05.330Z,4.80
2018-05-21T16:23:06.730Z,4.27
2018-05-21T16:25:34.258Z,4.40
2018-05-21T16:28:01.759Z,4.47
2018-05-21T16:30:29.284Z,4.00
2018-05-21T16:32:57.620Z,4.00
2018-05-21T16:35:25.217Z,4.60
2018-05-21T16:37:53.310Z,4.40
2018-05-21T16:40:20.810Z,4.67
2018-05-21T16:42:48.338Z,4.73
2018-05-21T16:45:15.844Z,4.53
2018-05-21T16:47:43.394Z,4.80
2018-05-21T16:50:10.912Z,4.23
2018-05-21T16:52:38.447Z,4.60
2018-05-21T16:55:06.716Z,4.87
2018-05-21T16:57:35.372Z,4.87
2018-05-21T17:00:03.003Z,5.47
2018-05-21T17:02:30.447Z,4.70
2018-05-21T17:04:58.018Z,4.73
2018-05-21T17:07:25.540Z,4.93
2018-05-21T17:09:53.852Z,4.50
2018-05-21T17:12:21.361Z,4.67
2018-05-21T17:14:49.379Z,4.83
2018-05-21T17:17:16.896Z,4.87
2018-05-21T17:19:44.406Z,4.40
2018-05-21T17:22:11.933Z,4.97
2018-05-21T17:24:40.205Z,5.10
2018-05-21T17:27:09.767Z,5.20
2018-05-21T17:29:37.392Z,5.00
2018-05-21T17:32:04.960Z,5.13
2018-05-21T17:34:32.487Z,4.93
2018-05-21T17:37:00.790Z,4.80
2018-05-21T17:39:28.340Z,4.80
2018-05-21T17:41:55.950Z,4.90
2018-05-21T17:44:23.467Z,4.93
2018-05-21T17:46:50.979Z,4.70
2018-05-21T17:49:18.608Z,4.87
2018-05-21T17:51:47.032Z,5.60
2018-05-21T17:54:15.329Z,5.40
2018-05-21T17:56:42.846Z,5.67
2018-05-21T17:59:10.402Z,5.20
2018-05-21T18:01:37.916Z,5.40
2018-05-21T18:04:06.228Z,4.80
2018-05-21T18:06:33.774Z,5.13
2018-05-21T18:09:01.278Z,5.23
2018-05-21T18:11:29.560Z,5.30
2018-05-21T18:13:57.804Z,5.47
2018-05-21T18:16:26.596Z,6.40
2018-05-21T18:18:54.477Z,5.30
2018-05-21T18:21:22.897Z,7.50
2018-05-21T18:23:50.458Z,6.50
2018-05-21T18:26:18.032Z,5.40
2018-05-21T18:28:45.564Z,5.70
2018-05-21T18:31:13.089Z,5.53
2018-05-21T18:33:40.629Z,5.37
2018-05-21T18:36:08.181Z,4.80
2018-05-21T18:38:35.723Z,6.60
2018-05-21T18:41:03.607Z,6.90
2018-05-21T18:43:32.102Z,6.67
2018-05-21T18:45:59.628Z,6.27
2018-05-21T18:48:27.193Z,5.87
2018-05-21T18:50:54.778Z,6.87
2018-05-21T18:53:22.335Z,6.87
2018-05-21T18:55:49.924Z,6.67
2018-05-21T18:58:18.223Z,6.27
2018-05-21T19:00:45.786Z,6.40
2018-05-21T19:03:13.299Z,6.53
2018-05-21T19:05:40.833Z,6.93
2018-05-21T19:08:08.362Z,5.80
2018-05-21T19:10:35.910Z,5.97
2018-05-21T19:13:03.436Z,6.33
2018-05-21T19:15:32.666Z,6.00
2018-05-21T19:18:01.076Z,5.53
2018-05-21T19:20:28.950Z,5.90
2018-05-21T19:22:56.475Z,6.40
2018-05-21T19:25:23.999Z,6.30
2018-05-21T19:27:52.404Z,6.07
2018-05-21T19:30:19.930Z,5.93
2018-05-21T19:32:47.452Z,5.60
2018-05-21T19:35:14.982Z,6.00
2018-05-21T19:37:42.550Z,13.07
2018-05-21T19:40:11.550Z,9.67
2018-05-21T19:42:39.064Z,6.27
2018-05-21T19:45:07.383Z,6.07
2018-05-21T19:47:34.902Z,5.40
2018-05-21T19:50:02.407Z,5.43
2018-05-21T19:52:29.939Z,5.57
2018-05-21T19:54:58.293Z,6.30
2018-05-21T19:57:26.595Z,6.40
2018-05-21T19:59:54.303Z,7.57
2018-05-21T20:02:22.131Z,26.13
2018-05-21T20:04:50.557Z,7.67
2018-05-21T20:07:18.498Z,7.23
2018-05-21T20:09:46.081Z,7.30
2018-05-21T20:12:13.607Z,7.70
2018-05-21T20:14:41.213Z,12.13
2018-05-21T20:17:09.085Z,7.47
2018-05-21T20:19:36.628Z,7.17
2018-05-21T20:22:04.192Z,7.63
2018-05-21T20:24:32.044Z,6.57
2018-05-21T20:26:59.675Z,6.97
2018-05-21T20:29:27.256Z,7.10
2018-05-21T20:31:54.793Z,5.87
2018-05-21T20:34:22.343Z,6.13
2018-05-21T20:36:49.910Z,6.43
2018-05-21T20:39:17.436Z,5.83
2018-05-21T20:41:45.836Z,5.57
2018-05-21T20:44:13.411Z,5.83
2018-05-21T20:46:41.152Z,5.63
2018-05-21T20:49:08.738Z,5.47
2018-05-21T20:51:36.323Z,5.60
2018-05-21T20:54:03.855Z,5.73
2018-05-21T20:56:31.405Z,5.50
2018-05-21T20:58:58.910Z,5.47
2018-05-21T21:01:26.462Z,5.23
2018-05-21T21:03:53.960Z,5.50
2018-05-21T21:06:22.239Z,5.67
2018-05-21T21:08:49.732Z,5.10
2018-05-21T21:11:17.296Z,5.30
2018-05-21T21:13:44.813Z,5.37
2018-05-21T21:16:12.342Z,5.73
2018-05-21T21:18:40.634Z,5.50
2018-05-21T21:21:08.912Z,5.25
2018-05-21T21:23:36.500Z,5.57
2018-05-21T21:26:04.052Z,5.53
2018-05-21T21:28:31.589Z,5.83
2018-05-21T21:30:59.867Z,5.40
2018-05-21T21:33:28.149Z,5.13
2018-05-21T21:35:56.448Z,5.70
2018-05-21T21:38:23.959Z,5.47
2018-05-21T21:40:51.466Z,6.10
2018-05-21T21:43:18.991Z,5.97
2018-05-21T21:45:47.320Z,5.90
2018-05-21T21:48:14.891Z,6.10
2018-05-21T21:50:42.424Z,6.23
2018-05-21T21:53:09.946Z,5.83
2018-05-21T21:55:38.212Z,6.13
2018-05-21T21:58:05.729Z,6.40
2018-05-21T22:00:33.335Z,5.97
2018-05-21T22:03:01.648Z,5.90
2018-05-21T22:05:29.165Z,5.63
2018-05-21T22:07:56.757Z,6.17
2018-05-21T22:10:24.294Z,6.37
2018-05-21T22:12:52.597Z,6.47
2018-05-21T22:15:20.158Z,6.33
2018-05-21T22:17:48.561Z,6.37
2018-05-21T22:20:16.081Z,6.33
2018-05-21T22:22:43.672Z,6.50
2018-05-21T22:25:11.171Z,6.47
2018-05-21T22:27:38.699Z,6.43
2018-05-21T22:30:06.210Z,6.83
2018-05-21T22:32:33.747Z,6.67
2018-05-21T22:35:02.036Z,6.57
2018-05-21T22:37:30.396Z,6.60
2018-05-21T22:39:57.938Z,7.07
2018-05-21T22:42:25.717Z,6.87
2018-05-21T22:44:53.267Z,7.17
2018-05-21T22:47:20.851Z,7.10
2018-05-21T22:49:49.166Z,7.40
2018-05-21T22:52:16.682Z,7.10
2018-05-21T22:54:44.949Z,7.77
2018-05-21T22:57:12.472Z,7.10
2018-05-21T22:59:40.000Z,7.57
2018-05-21T23:02:07.515Z,8.23
2018-05-21T23:04:35.051Z,8.07
2018-05-21T23:07:02.590Z,7.63
2018-05-21T23:09:30.104Z,7.60
2018-05-21T23:11:57.624Z,8.20
2018-05-21T23:14:25.969Z,7.87
2018-05-21T23:16:53.503Z,8.13
2018-05-21T23:19:21.808Z,7.80
2018-05-21T23:21:49.314Z,8.67
2018-05-21T23:24:16.828Z,8.33
2018-05-21T23:26:44.363Z,8.57
2018-05-21T23:29:11.878Z,8.37
2018-05-21T23:31:39.400Z,8.90
2018-05-21T23:34:07.044Z,9.20
2018-05-21T23:36:35.373Z,9.10
2018-05-21T23:39:02.884Z,8.80
2018-05-21T23:41:30.429Z,8.90
2018-05-21T23:43:58.740Z,8.87
2018-05-21T23:46:26.243Z,9.53
2018-05-21T23:48:55.378Z,9.87
2018-05-21T23:51:22.887Z,9.10
2018-05-21T23:53:50.440Z,9.77
2018-05-21T23:56:17.950Z,9.30
2018-05-21T23:58:45.460Z,9.20
